Time;durP1;ratioP1;P1;durP2;ratioP2;P2;SDS_P1;SDS_P2;PMS_P1;PMS_P2;Temp;Humidity;BMP_temperature;BMP_pressure;BME280_temperature;BME280_humidity;BME280_pressure;Samples;Min_cycle;Max_cycle;Signal;HPM_P1;HPM_P2
2021/08/21 00:00:07;;;;;;;9.38;8.48;;;;;;;15.33;63.03;100954.91;4921038;28;112395;-68
2021/08/21 00:02:34;;;;;;;9.07;8.18;;;;;;;15.31;63.14;100956.28;4921442;28;98832;-64
2021/08/21 00:05:00;;;;;;;8.98;8.02;;;;;;;15.26;63.58;100954.44;4920516;28;128333;-64
2021/08/21 00:07:26;;;;;;;9.48;8.40;;;;;;;15.23;63.22;100960.44;4918710;28;118500;-68
2021/08/21 00:09:52;;;;;;;9.65;8.68;;;;;;;15.16;63.26;100966.19;4922093;28;113565;-65
2021/08/21 00:12:18;;;;;;;10.32;9.23;;;;;;;15.12;63.15;100967.84;4921828;28;128127;-67
2021/08/21 00:14:44;;;;;;;11.63;9.85;;;;;;;15.06;64.10;100969.00;4915521;28;126301;-64
2021/08/21 00:17:10;;;;;;;13.10;11.18;;;;;;;15.03;64.00;100968.75;4902591;28;116807;-64
2021/08/21 00:19:37;;;;;;;12.57;11.20;;;;;;;14.97;64.19;100966.09;4913024;28;126483;-67
2021/08/21 00:22:03;;;;;;;11.02;9.90;;;;;;;14.95;63.99;100979.13;4921164;28;116231;-68
2021/08/21 00:24:29;;;;;;;12.35;10.82;;;;;;;14.91;64.26;100971.84;4921656;28;125359;-65
2021/08/21 00:26:55;;;;;;;15.80;14.20;;;;;;;14.86;64.13;100969.19;4924348;28;115726;-68
2021/08/21 00:29:21;;;;;;;17.58;15.77;;;;;;;14.81;63.96;100975.44;4903233;28;99884;-68
2021/08/21 00:31:47;;;;;;;14.90;13.38;;;;;;;14.79;64.62;100971.41;4920995;28;127877;-64
2021/08/21 00:34:13;;;;;;;15.02;13.25;;;;;;;14.78;64.72;100972.50;4919143;28;127607;-68
2021/08/21 00:36:39;;;;;;;14.15;12.70;;;;;;;14.78;64.47;100972.50;4919009;28;116678;-64
2021/08/21 00:39:05;;;;;;;14.05;12.55;;;;;;;14.78;64.75;100975.22;4918658;28;126671;-64
2021/08/21 00:41:34;;;;;;;14.48;12.98;;;;;;;14.71;64.36;100973.63;4921606;28;98321;-65
2021/08/21 00:44:01;;;;;;;14.48;12.60;;;;;;;14.67;64.58;100978.00;4904145;28;97899;-68
2021/08/21 00:46:27;;;;;;;12.75;11.45;;;;;;;14.63;64.54;100976.13;4922552;28;97975;-68
2021/08/21 00:48:53;;;;;;;12.57;11.27;;;;;;;14.58;64.50;100974.25;4919604;28;123865;-64
2021/08/21 00:51:19;;;;;;;11.40;10.20;;;;;;;14.55;64.74;100972.09;4901398;28;127892;-64
2021/08/21 00:53:45;;;;;;;10.32;9.32;;;;;;;14.49;64.92;100973.22;4899404;28;117452;-68
2021/08/21 00:56:11;;;;;;;9.82;8.82;;;;;;;14.46;64.97;100971.03;4902043;28;98081;-68
2021/08/21 00:58:37;;;;;;;10.40;9.30;;;;;;;14.46;65.24;100968.31;4898649;28;128435;-68
2021/08/21 01:01:03;;;;;;;10.65;9.43;;;;;;;14.45;65.32;100970.22;4902113;28;99184;-64
2021/08/21 01:03:29;;;;;;;9.40;8.30;;;;;;;14.45;65.42;100977.56;4899857;28;125662;-68
2021/08/21 01:05:55;;;;;;;9.57;8.32;;;;;;;14.43;65.21;100968.91;4884162;28;117854;-65
2021/08/21 01:08:21;;;;;;;9.18;8.20;;;;;;;14.41;65.71;100974.59;4884136;28;109828;-65
2021/08/21 01:10:48;;;;;;;9.35;8.32;;;;;;;14.39;65.53;100965.13;4911125;28;100295;-64
2021/08/21 01:13:14;;;;;;;9.98;8.88;;;;;;;14.38;65.23;100969.75;4920580;28;97977;-68
2021/08/21 01:15:40;;;;;;;10.35;9.30;;;;;;;14.34;65.13;100971.38;4920999;28;107669;-68
2021/08/21 01:18:06;;;;;;;10.07;8.95;;;;;;;14.32;65.29;100964.63;4873762;28;127586;-67
2021/08/21 01:20:32;;;;;;;9.85;8.82;;;;;;;14.29;65.72;100963.28;4899788;28;126296;-68
2021/08/21 01:23:00;;;;;;;9.10;8.20;;;;;;;14.28;65.54;100958.16;4883953;28;103884;-67
2021/08/21 01:25:27;;;;;;;10.73;9.18;;;;;;;14.29;65.90;100970.59;4902054;28;98044;-64
2021/08/21 01:27:53;;;;;;;11.93;8.95;;;;;;;14.29;65.96;100963.28;4901895;28;98647;-66
2021/08/21 01:30:19;;;;;;;9.70;8.63;;;;;;;14.29;65.27;100963.28;4909707;28;126767;-64
2021/08/21 01:32:45;;;;;;;10.05;8.73;;;;;;;14.30;65.74;100964.88;4920413;28;126159;-64
2021/08/21 01:35:11;;;;;;;9.82;8.75;;;;;;;14.28;65.23;100971.69;4920452;28;117028;-65
2021/08/21 01:37:37;;;;;;;9.18;8.20;;;;;;;14.25;65.24;100965.72;4918714;28;110041;-64
2021/08/21 01:40:05;;;;;;;10.10;8.95;;;;;;;14.23;65.23;100964.41;4919361;28;127981;-67
2021/08/21 01:42:31;;;;;;;9.55;8.65;;;;;;;14.22;65.64;100969.00;4919418;28;115290;-68
2021/08/21 01:44:57;;;;;;;10.48;8.15;;;;;;;14.20;65.45;100967.69;4916363;28;108225;-64
2021/08/21 01:47:23;;;;;;;9.38;8.48;;;;;;;14.18;65.22;100961.72;4900893;28;126981;-64
2021/08/21 01:49:58;;;;;;;9.10;8.20;;;;;;;14.15;65.25;100965.81;4884070;28;128010;-67
2021/08/21 01:52:25;;;;;;;9.65;8.75;;;;;;;14.18;65.44;100970.66;4901939;28;98576;-68
2021/08/21 01:54:52;;;;;;;10.18;8.88;;;;;;;14.16;65.25;100966.63;4903569;28;116653;-67
2021/08/21 01:57:18;;;;;;;10.27;9.00;;;;;;;14.13;65.17;100970.69;4902143;28;108260;-67
2021/08/21 01:59:45;;;;;;;9.95;8.93;;;;;;;14.09;65.25;100966.09;4898366;28;128236;-64
2021/08/21 02:02:16;;;;;;;10.63;9.10;;;;;;;14.04;65.24;100971.56;4882337;28;118689;-67
2021/08/21 02:04:42;;;;;;;10.15;9.15;;;;;;;14.05;66.23;100973.16;4901790;28;97800;-68
2021/08/21 02:07:09;;;;;;;10.07;9.07;;;;;;;14.05;65.82;100979.41;4901339;28;102631;-67
2021/08/21 02:09:35;;;;;;;10.70;9.60;;;;;;;14.06;65.82;100977.50;4902869;28;128227;-64
2021/08/21 02:12:03;;;;;;;10.18;9.10;;;;;;;14.04;65.65;100972.38;4904455;28;104178;-64
2021/08/21 02:14:29;;;;;;;10.75;8.55;;;;;;;14.04;65.62;100979.69;4887565;28;98481;-67
2021/08/21 02:16:58;;;;;;;9.88;8.88;;;;;;;14.02;65.77;100977.22;4904262;28;98304;-64
2021/08/21 02:19:24;;;;;;;10.85;8.93;;;;;;;14.03;66.00;100975.31;4902131;28;98340;-69
2021/08/21 02:21:52;;;;;;;11.38;9.02;;;;;;;14.00;65.67;100976.72;4921975;28;125891;-67
2021/08/21 02:24:23;;;;;;;9.93;8.93;;;;;;;13.98;65.66;100974.25;4922883;28;97894;-64
2021/08/21 02:26:50;;;;;;;10.97;9.43;;;;;;;13.96;65.65;100979.16;4924415;28;98426;-68
2021/08/21 02:29:16;;;;;;;10.65;9.02;;;;;;;13.96;65.98;100973.75;4907269;28;98603;-67
2021/08/21 02:31:42;;;;;;;10.65;9.00;;;;;;;13.99;65.94;100975.09;4903675;28;127992;-64
2021/08/21 02:34:08;;;;;;;10.48;9.23;;;;;;;13.96;65.85;100968.31;4904815;28;117631;-67
2021/08/21 02:36:34;;;;;;;10.25;9.02;;;;;;;13.90;65.78;100958.59;4903362;28;120459;-64
2021/08/21 02:39:00;;;;;;;9.98;8.98;;;;;;;13.88;65.92;100959.97;4886114;28;128231;-64
2021/08/21 02:41:27;;;;;;;10.13;9.02;;;;;;;13.87;66.01;100963.75;4914731;28;102727;-67
2021/08/21 02:43:53;;;;;;;10.70;9.52;;;;;;;13.88;66.18;100959.97;4922519;28;98032;-64
2021/08/21 02:46:19;;;;;;;11.50;9.40;;;;;;;13.89;65.97;100964.28;4904530;28;127981;-64
2021/08/21 02:48:45;;;;;;;10.15;9.15;;;;;;;13.90;66.19;100966.72;4922867;28;128362;-64
2021/08/21 02:51:11;;;;;;;9.55;8.63;;;;;;;13.88;66.14;100966.19;4920783;28;127249;-67
2021/08/21 02:53:37;;;;;;;9.65;8.70;;;;;;;13.91;66.38;100972.94;4924682;28;97968;-67
2021/08/21 02:56:03;;;;;;;10.38;9.27;;;;;;;13.92;66.41;100969.16;4920718;28;127441;-67
2021/08/21 02:58:29;;;;;;;10.85;9.15;;;;;;;13.91;66.51;100968.34;4920054;28;117747;-64
2021/08/21 03:00:55;;;;;;;9.60;8.25;;;;;;;13.92;66.39;100969.97;4921161;28;127468;-67
2021/08/21 03:03:21;;;;;;;9.57;8.55;;;;;;;13.90;66.14;100969.41;4922413;28;118549;-67
2021/08/21 03:05:47;;;;;;;9.35;8.45;;;;;;;13.87;66.07;100970.00;4922761;28;126717;-64
2021/08/21 03:08:13;;;;;;;9.55;8.65;;;;;;;13.84;65.89;100967.84;4920432;28;98698;-67
2021/08/21 03:10:39;;;;;;;10.80;8.90;;;;;;;13.81;65.57;100973.81;4902935;28;127520;-67
2021/08/21 03:13:05;;;;;;;8.75;7.85;;;;;;;13.76;65.88;100960.28;4904368;28;98086;-64
2021/08/21 03:15:32;;;;;;;9.13;8.23;;;;;;;13.76;66.20;100965.69;4902738;28;128113;-67
2021/08/21 03:17:58;;;;;;;9.77;8.77;;;;;;;13.79;66.78;100973.25;4902481;28;98595;-67
2021/08/21 03:20:25;;;;;;;10.02;8.27;;;;;;;13.81;66.70;100979.22;4885371;28;101787;-67
2021/08/21 03:22:51;;;;;;;10.05;8.57;;;;;;;13.81;66.28;100973.00;4904805;28;97888;-67
2021/08/21 03:25:17;;;;;;;10.00;9.00;;;;;;;13.83;66.27;100978.94;4904169;28;114988;-67
2021/08/21 03:27:43;;;;;;;10.40;8.52;;;;;;;13.80;66.00;100974.09;4902857;28;122875;-67
2021/08/21 03:30:09;;;;;;;9.60;8.48;;;;;;;13.76;66.14;100973.81;4902749;28;126351;-64
2021/08/21 03:32:35;;;;;;;10.70;8.75;;;;;;;13.73;66.03;100986.03;4903654;28;100253;-67
2021/08/21 03:35:02;;;;;;;10.23;9.13;;;;;;;13.72;66.34;100986.31;4904471;28;98443;-64
2021/08/21 03:37:29;;;;;;;9.43;8.48;;;;;;;13.73;66.61;100982.50;4923188;28;98358;-67
2021/08/21 03:39:55;;;;;;;9.57;8.60;;;;;;;13.74;66.42;100993.06;4918384;28;98368;-67
2021/08/21 03:42:22;;;;;;;10.10;9.07;;;;;;;13.71;65.93;100985.47;4918184;28;98226;-68
2021/08/21 03:44:48;;;;;;;10.23;8.80;;;;;;;13.69;66.41;100995.78;4901532;28;99468;-64
2021/08/21 03:47:14;;;;;;;10.05;9.05;;;;;;;13.69;66.51;101000.41;4905412;28;127476;-64
2021/08/21 03:49:40;;;;;;;10.30;9.30;;;;;;;13.69;66.55;100995.78;4920593;28;127435;-65
2021/08/21 03:52:06;;;;;;;10.30;8.60;;;;;;;13.74;66.52;100995.75;4920526;28;98042;-64
2021/08/21 03:54:32;;;;;;;10.25;9.15;;;;;;;13.83;66.42;100998.72;4921647;28;126754;-64
2021/08/21 03:56:58;;;;;;;10.30;9.20;;;;;;;13.91;66.33;101000.03;4920137;28;111290;-64
2021/08/21 03:59:24;;;;;;;10.35;9.25;;;;;;;13.97;66.61;100999.75;4921757;28;127579;-68
2021/08/21 04:01:50;;;;;;;11.63;8.88;;;;;;;14.06;66.22;100996.47;4921169;28;117042;-64
2021/08/21 04:04:16;;;;;;;10.15;9.15;;;;;;;14.12;66.25;100995.38;4887871;28;114896;-67
2021/08/21 04:06:43;;;;;;;9.57;8.57;;;;;;;14.16;66.09;101005.38;4919845;28;118964;-64
2021/08/21 04:09:09;;;;;;;9.50;8.55;;;;;;;14.20;65.96;101006.44;4921897;28;98213;-64
2021/08/21 04:11:35;;;;;;;9.27;8.35;;;;;;;14.25;66.02;101000.19;4918719;28;106433;-64
2021/08/21 04:14:01;;;;;;;9.00;7.47;;;;;;;14.30;65.78;101002.03;4884972;28;112040;-64
2021/08/21 04:16:27;;;;;;;9.73;8.73;;;;;;;14.33;65.93;100999.59;4883559;28;127925;-67
2021/08/21 04:18:53;;;;;;;8.80;7.90;;;;;;;14.35;65.40;100997.41;4902803;28;127344;-64
2021/08/21 04:21:19;;;;;;;10.02;8.57;;;;;;;14.38;65.50;101004.16;4900347;28;118580;-68
2021/08/21 04:23:45;;;;;;;9.38;8.23;;;;;;;14.42;65.66;101007.94;4903709;28;118996;-68
2021/08/21 04:26:11;;;;;;;8.65;7.85;;;;;;;14.44;65.99;101014.72;4902240;28;128077;-68
2021/08/21 04:28:37;;;;;;;8.50;7.65;;;;;;;14.48;65.54;101001.41;4901843;28;127238;-64
2021/08/21 04:31:03;;;;;;;9.25;7.75;;;;;;;14.52;65.51;101015.25;4887513;28;115702;-64
2021/08/21 04:33:30;;;;;;;8.80;7.45;;;;;;;14.56;65.32;101008.19;4920830;28;125499;-68
2021/08/21 04:35:56;;;;;;;8.60;7.53;;;;;;;14.59;65.33;101011.16;4920859;28;115432;-68
2021/08/21 04:38:22;;;;;;;8.05;7.25;;;;;;;14.62;65.14;101007.03;4921541;28;98689;-64
2021/08/21 04:40:48;;;;;;;8.77;7.88;;;;;;;14.67;65.11;101012.47;4921174;28;117162;-68
2021/08/21 04:43:15;;;;;;;8.68;7.78;;;;;;;14.71;65.21;101010.78;4921002;28;128400;-68
2021/08/21 04:45:42;;;;;;;9.20;8.25;;;;;;;14.76;65.37;101007.22;4920929;28;115394;-68
2021/08/21 04:48:08;;;;;;;10.38;8.85;;;;;;;14.78;65.44;101015.91;4922030;28;106331;-64
2021/08/21 04:50:36;;;;;;;9.93;8.93;;;;;;;14.81;65.26;101013.44;4920612;28;98090;-64
2021/08/21 04:53:04;;;;;;;9.95;8.30;;;;;;;14.85;65.24;101017.19;4919584;28;98792;-68
2021/08/21 04:55:30;;;;;;;9.80;8.90;;;;;;;14.90;65.75;101019.91;4918980;28;98583;-64
2021/08/21 04:57:57;;;;;;;9.82;8.80;;;;;;;14.95;65.60;101022.56;4909901;28;98110;-64
2021/08/21 05:00:24;;;;;;;9.55;8.43;;;;;;;15.00;65.41;101015.47;4916129;28;99161;-68
2021/08/21 05:02:51;;;;;;;10.55;9.45;;;;;;;15.04;65.52;101019.25;4917163;28;98416;-67
2021/08/21 05:05:18;;;;;;;9.07;8.18;;;;;;;15.09;65.44;101027.34;4883554;28;98815;-64
2021/08/21 05:07:45;;;;;;;10.00;9.05;;;;;;;15.13;65.54;101021.06;4903521;28;99593;-68
2021/08/21 05:10:13;;;;;;;9.38;8.43;;;;;;;15.18;64.93;101031.09;4919138;28;97778;-64
2021/08/21 05:12:39;;;;;;;9.75;8.75;;;;;;;15.22;65.42;101023.97;4917433;28;98163;-68
2021/08/21 05:15:06;;;;;;;10.52;9.20;;;;;;;15.26;64.72;101027.75;4906372;28;100532;-68
2021/08/21 05:17:33;;;;;;;10.02;9.00;;;;;;;15.31;65.12;101030.41;4921435;28;114416;-68
2021/08/21 05:20:15;;;;;;;9.95;8.82;;;;;;;15.36;65.25;101029.56;4921648;28;97864;-68
2021/08/21 05:25:12;;;;;;;10.15;9.07;;;;;;;15.51;65.02;101039.47;4916729;28;98389;-64
2021/08/21 05:27:38;;;;;;;10.63;9.02;;;;;;;15.57;65.10;101031.00;4898274;28;112011;-64
2021/08/21 05:30:05;;;;;;;13.23;9.88;;;;;;;15.66;64.79;101034.72;4916707;28;117976;-68
2021/08/21 05:32:31;;;;;;;10.70;9.60;;;;;;;15.70;64.93;101032.25;4919283;28;108290;-68
2021/08/21 05:34:58;;;;;;;10.68;9.57;;;;;;;15.77;64.99;101040.88;4920333;28;115829;-64
2021/08/21 05:37:24;;;;;;;10.73;9.73;;;;;;;15.85;64.70;101045.69;4921137;28;100476;-64
2021/08/21 05:39:50;;;;;;;10.23;9.23;;;;;;;15.91;64.87;101043.69;4904831;28;103143;-64
2021/08/21 05:42:16;;;;;;;11.27;9.70;;;;;;;16.00;64.87;101038.47;4899750;28;127724;-64
2021/08/21 05:44:42;;;;;;;11.30;10.20;;;;;;;16.08;64.68;101052.22;4903126;28;128067;-64
2021/08/21 05:47:08;;;;;;;11.25;10.13;;;;;;;16.17;64.52;101050.47;4903086;28;98266;-68
2021/08/21 05:49:34;;;;;;;11.45;9.93;;;;;;;16.26;64.66;101050.63;4886360;28;108036;-64
2021/08/21 05:52:00;;;;;;;11.25;10.15;;;;;;;16.34;64.59;101060.88;4878161;28;103205;-64
2021/08/21 05:54:26;;;;;;;10.80;9.75;;;;;;;16.44;64.23;101055.31;4907807;28;122916;-64
2021/08/21 05:56:52;;;;;;;11.10;10.00;;;;;;;16.53;64.14;101060.91;4907200;28;127470;-68
2021/08/21 05:59:18;;;;;;;11.50;10.20;;;;;;;16.60;64.09;101055.09;4918116;28;97963;-69
2021/08/21 06:01:44;;;;;;;12.10;10.60;;;;;;;16.68;64.01;101054.44;4905841;28;126667;-68
2021/08/21 06:04:10;;;;;;;12.25;10.95;;;;;;;16.77;63.96;101060.84;4900483;28;127985;-64
2021/08/21 06:06:37;;;;;;;12.70;10.77;;;;;;;16.90;63.80;101054.69;4899381;28;126814;-68
2021/08/21 06:09:03;;;;;;;11.50;10.30;;;;;;;17.00;63.59;101052.91;4904955;28;98163;-68
2021/08/21 06:11:29;;;;;;;11.82;10.57;;;;;;;17.22;63.17;101057.75;4898797;28;117070;-64
2021/08/21 06:13:56;;;;;;;11.30;10.20;;;;;;;17.45;62.70;101056.81;4906730;28;98511;-68
2021/08/21 06:16:22;;;;;;;11.63;10.43;;;;;;;17.62;62.42;101059.75;4901819;28;111050;-68
2021/08/21 06:18:48;;;;;;;11.63;9.82;;;;;;;17.94;61.86;101068.22;4900870;28;113601;-64
2021/08/21 06:21:14;;;;;;;11.75;10.35;;;;;;;18.20;61.49;101065.81;4894837;28;97892;-68
2021/08/21 06:23:40;;;;;;;13.20;11.15;;;;;;;18.39;61.06;101066.47;4906100;28;128181;-68
2021/08/21 06:26:06;;;;;;;29.83;17.25;;;;;;;18.63;60.53;101072.50;4905416;28;98185;-68
2021/08/21 06:28:33;;;;;;;14.57;12.13;;;;;;;18.86;60.49;101065.22;4900908;28;117893;-66
2021/08/21 06:30:59;;;;;;;12.07;10.73;;;;;;;19.12;59.78;101078.25;4913221;28;102073;-68
2021/08/21 06:33:25;;;;;;;16.23;11.30;;;;;;;19.38;59.17;101073.78;4902284;28;128851;-68
2021/08/21 06:35:51;;;;;;;12.63;11.10;;;;;;;19.65;58.29;101063.00;4905958;28;125234;-67
2021/08/21 06:38:17;;;;;;;12.98;11.25;;;;;;;19.84;58.18;101072.59;4905796;28;118819;-68
2021/08/21 06:40:43;;;;;;;10.88;9.77;;;;;;;20.11;57.52;101071.59;4901435;28;98308;-69
2021/08/21 06:43:09;;;;;;;11.75;10.65;;;;;;;20.28;56.89;101073.59;4901535;28;98154;-68
2021/08/21 06:45:35;;;;;;;10.85;9.73;;;;;;;20.93;55.22;101069.19;4900112;28;128078;-66
2021/08/21 06:48:01;;;;;;;10.30;9.35;;;;;;;21.69;53.67;101062.28;4905624;28;117215;-66
2021/08/21 06:50:33;;;;;;;10.60;9.18;;;;;;;22.05;53.00;101064.59;4900662;28;98573;-68
2021/08/21 06:53:01;;;;;;;10.50;9.48;;;;;;;22.36;52.32;101063.47;4911789;28;99093;-66
2021/08/21 06:55:27;;;;;;;9.25;8.45;;;;;;;22.94;51.22;101059.84;4898258;28;98101;-69
2021/08/21 06:57:53;;;;;;;9.70;8.70;;;;;;;23.31;50.15;101068.25;4900797;28;118060;-66
2021/08/21 07:00:19;;;;;;;9.50;8.50;;;;;;;23.64;49.60;101065.44;4899928;28;128681;-66
2021/08/21 07:02:45;;;;;;;9.77;8.75;;;;;;;24.40;47.93;101071.50;4899749;28;113243;-69
2021/08/21 07:05:11;;;;;;;9.00;8.23;;;;;;;24.98;47.11;101070.09;4905237;28;127696;-66
2021/08/21 07:07:37;;;;;;;10.02;9.02;;;;;;;24.89;47.46;101077.72;4900795;28;98094;-66
2021/08/21 07:10:05;;;;;;;10.07;9.05;;;;;;;24.41;48.46;101082.19;4900480;28;98442;-69
2021/08/21 07:12:31;;;;;;;9.98;9.07;;;;;;;23.94;48.76;101074.34;4899089;28;99480;-67
2021/08/21 07:14:57;;;;;;;9.50;8.60;;;;;;;23.56;49.61;101071.84;4900580;28;127632;-69
2021/08/21 07:17:23;;;;;;;10.40;9.40;;;;;;;23.20;50.21;101075.31;4902497;28;97885;-67
2021/08/21 07:19:49;;;;;;;10.15;9.15;;;;;;;23.08;50.24;101067.81;4902413;28;117177;-69
2021/08/21 07:22:15;;;;;;;10.48;9.32;;;;;;;22.99;50.39;101062.41;4849563;28;129986;-66
2021/08/21 07:24:41;;;;;;;10.07;9.07;;;;;;;22.99;50.83;101075.31;4899536;28;127884;-69
2021/08/21 07:27:07;;;;;;;9.75;8.80;;;;;;;23.31;50.16;101062.75;4899950;28;98038;-66
2021/08/21 07:29:33;;;;;;;10.48;9.43;;;;;;;23.63;49.42;101072.09;4897779;28;103568;-69
2021/08/21 07:31:59;;;;;;;9.48;8.68;;;;;;;23.98;48.95;101066.22;4899766;28;98384;-66
2021/08/21 07:34:25;;;;;;;10.02;9.15;;;;;;;24.29;48.55;101065.63;4899609;28;98701;-69
2021/08/21 07:36:51;;;;;;;9.63;8.73;;;;;;;24.58;47.86;101069.28;4899873;28;117315;-69
2021/08/21 07:39:18;;;;;;;9.18;8.00;;;;;;;24.95;47.07;101073.53;4899348;28;125426;-66
2021/08/21 07:41:44;;;;;;;9.40;8.35;;;;;;;25.26;46.33;101080.34;4905041;28;127958;-66
2021/08/21 07:44:11;;;;;;;8.98;7.38;;;;;;;25.57;46.19;101076.03;4882027;28;98578;-66
2021/08/21 07:46:37;;;;;;;8.50;7.60;;;;;;;25.70;45.92;101072.03;4907512;28;97999;-69
2021/08/21 07:49:03;;;;;;;8.32;7.53;;;;;;;25.81;45.65;101075.09;4898318;28;125885;-66
2021/08/21 07:51:29;;;;;;;7.80;7.10;;;;;;;26.04;45.30;101078.03;4897387;28;98198;-69
2021/08/21 07:53:55;;;;;;;8.32;7.10;;;;;;;26.19;44.82;101078.03;4898668;28;126394;-68
2021/08/21 07:56:21;;;;;;;8.35;7.53;;;;;;;26.05;45.29;101076.88;4900345;28;118178;-69
2021/08/21 07:58:47;;;;;;;8.20;7.40;;;;;;;26.08;44.92;101090.78;4899001;28;127053;-69
2021/08/21 08:01:13;;;;;;;9.20;7.95;;;;;;;26.11;45.08;101080.97;4900016;28;129083;-68
2021/08/21 08:03:39;;;;;;;7.70;7.00;;;;;;;26.29;44.59;101087.72;4900606;28;98066;-66
2021/08/21 08:06:05;;;;;;;8.23;7.43;;;;;;;26.58;43.97;101080.13;4900994;28;98106;-69
2021/08/21 08:08:31;;;;;;;7.57;6.78;;;;;;;27.00;43.55;101079.41;4897849;28;98559;-66
2021/08/21 08:10:58;;;;;;;9.70;7.45;;;;;;;27.69;41.62;101085.09;4899334;28;98913;-69
2021/08/21 08:13:25;;;;;;;7.35;6.70;;;;;;;28.36;41.64;101090.94;4899269;28;127049;-66
2021/08/21 08:15:51;;;;;;;6.82;5.88;;;;;;;29.14;40.01;101094.00;4900882;28;98326;-66
2021/08/21 08:18:17;;;;;;;6.88;6.22;;;;;;;29.88;38.42;101089.63;4903858;28;103341;-69
2021/08/21 08:20:43;;;;;;;6.55;5.75;;;;;;;30.55;37.59;101090.09;4900164;28;101872;-66
2021/08/21 08:23:11;;;;;;;6.72;5.60;;;;;;;31.18;35.94;101090.78;4899597;28;98847;-70
2021/08/21 08:25:37;;;;;;;6.22;5.32;;;;;;;31.89;35.13;101087.34;4899861;28;98165;-70
2021/08/21 08:28:04;;;;;;;6.57;5.05;;;;;;;32.57;33.74;101083.69;4899030;28;98202;-70
2021/08/21 08:30:30;;;;;;;5.60;5.10;;;;;;;33.21;32.33;101089.81;4881179;28;108451;-69
2021/08/21 08:32:56;;;;;;;5.82;5.15;;;;;;;33.92;31.72;101085.75;4898026;28;127898;-66
2021/08/21 08:35:22;;;;;;;5.72;4.97;;;;;;;34.48;31.10;101084.81;4899084;28;118071;-66
2021/08/21 08:37:48;;;;;;;5.15;4.65;;;;;;;34.83;29.74;101081.63;4899100;28;98785;-69
2021/08/21 08:40:14;;;;;;;5.43;4.47;;;;;;;35.19;29.23;101080.38;4898865;28;120226;-70
2021/08/21 08:42:41;;;;;;;5.18;4.32;;;;;;;35.68;28.67;101080.84;4903141;28;100198;-66
2021/08/21 08:45:12;;;;;;;4.97;4.47;;;;;;;36.18;27.80;101080.78;4899899;28;103414;-70
2021/08/21 08:47:38;;;;;;;4.80;4.22;;;;;;;36.54;27.70;101080.91;4901313;28;99150;-66
2021/08/21 08:50:06;;;;;;;4.60;4.20;;;;;;;36.73;27.62;101073.72;4903002;28;98469;-70
2021/08/21 08:52:34;;;;;;;4.45;4.05;;;;;;;37.26;26.70;101083.00;4881623;28;97874;-66
2021/08/21 08:55:03;;;;;;;4.38;3.95;;;;;;;37.80;26.69;101078.91;4898674;28;97833;-64
2021/08/21 08:57:37;;;;;;;4.53;4.13;;;;;;;38.31;26.48;101071.53;4899879;28;98386;-68
2021/08/21 09:00:07;;;;;;;4.93;3.40;;;;;;;38.55;25.32;101068.47;4899791;28;98106;-68
2021/08/21 09:02:41;;;;;;;4.82;4.00;;;;;;;39.00;25.29;101067.59;4899457;28;98358;-64
2021/08/21 09:05:10;;;;;;;19.45;17.58;;;;;;;39.26;24.58;101068.38;4899825;28;97908;-67
2021/08/21 09:08:07;;;;;;;12.35;10.30;;;;;;;39.87;24.46;101055.91;4898898;28;98572;-65
2021/08/21 09:10:34;;;;;;;15.20;13.80;;;;;;;39.91;23.84;101058.59;4899317;28;99157;-67
2021/08/21 09:13:15;;;;;;;10.90;9.90;;;;;;;40.22;24.14;101062.34;4898444;28;101238;-67
2021/08/21 09:15:59;;;;;;;7.07;4.57;;;;;;;40.42;23.92;101055.59;4898767;28;98032;-65
2021/08/21 09:18:27;;;;;;;13.85;5.43;;;;;;;40.26;22.96;101055.78;4897957;28;106096;-65
2021/08/21 09:21:02;;;;;;;22.88;10.52;;;;;;;40.49;23.71;101060.97;4896957;28;98116;-67
2021/08/21 09:23:36;;;;;;;12.18;5.50;;;;;;;40.13;23.96;101056.63;4899228;28;97850;-67
2021/08/21 09:26:35;;;;;;;34.05;8.60;;;;;;;39.54;24.92;101049.78;4899764;28;97975;-66
2021/08/21 09:29:01;;;;;;;109.40;21.20;;;;;;;39.06;24.36;101042.44;4897776;28;98089;-66
2021/08/21 09:31:33;;;;;;;8.30;4.55;;;;;;;38.83;24.77;101043.56;4895715;28;99080;-68
2021/08/21 09:34:02;;;;;;;6.75;3.65;;;;;;;38.94;24.11;101046.84;4898436;28;97874;-66
2021/08/21 09:36:36;;;;;;;4.63;3.20;;;;;;;39.35;22.91;101043.16;4899273;28;98413;-68
2021/08/21 09:39:05;;;;;;;3.85;2.85;;;;;;;39.73;23.16;101037.47;4899284;28;99908;-68
2021/08/21 09:41:51;;;;;;;21.17;11.40;;;;;;;40.20;23.06;101042.25;4898230;28;98568;-68
2021/08/21 09:44:25;;;;;;;60.70;10.15;;;;;;;40.94;22.35;101031.41;4899080;28;97945;-65
2021/08/21 09:47:25;;;;;;;11.70;4.10;;;;;;;41.38;21.95;101036.91;4905704;28;97947;-66
2021/08/21 09:49:52;;;;;;;7.72;3.55;;;;;;;41.32;21.09;101028.28;4901489;28;98273;-66
2021/08/21 09:52:19;;;;;;;4.43;2.80;;;;;;;41.49;21.24;101033.69;4893637;28;104419;-66
2021/08/21 09:55:02;;;;;;;6.05;3.65;;;;;;;41.77;21.26;101028.84;4895575;28;97878;-68
2021/08/21 09:57:28;;;;;;;3.53;3.22;;;;;;;42.20;20.02;101039.06;4889605;28;98106;-68
2021/08/21 09:59:57;;;;;;;4.13;2.63;;;;;;;42.35;20.30;101030.75;4897534;28;128123;-68
2021/08/21 10:02:23;;;;;;;10.82;5.35;;;;;;;42.54;20.01;101037.16;4900520;28;98495;-65
2021/08/21 10:04:49;;;;;;;7.25;4.57;;;;;;;42.47;19.76;101026.16;4902966;28;98387;-69
2021/08/21 10:07:19;;;;;;;4.35;3.25;;;;;;;41.07;20.48;101014.38;4900955;28;98108;-66
2021/08/21 10:09:45;;;;;;;7.47;5.00;;;;;;;40.14;21.98;101006.63;4898131;28;98566;-69
2021/08/21 10:12:14;;;;;;;3.35;3.05;;;;;;;38.96;23.00;101002.91;4855851;28;127639;-69
2021/08/21 10:14:42;;;;;;;3.28;2.83;;;;;;;39.58;21.71;101004.50;4896120;28;98605;-69
2021/08/21 10:17:09;;;;;;;3.08;2.70;;;;;;;38.61;22.52;100996.31;4879645;28;104709;-68
2021/08/21 10:19:36;;;;;;;2.55;2.20;;;;;;;38.98;22.89;101000.41;4901860;28;97926;-68
2021/08/21 10:22:02;;;;;;;3.10;2.78;;;;;;;39.97;21.56;101005.97;4894290;28;98338;-66
2021/08/21 10:24:37;;;;;;;2.90;2.63;;;;;;;40.49;21.43;100998.84;4898519;28;98532;-69
2021/08/21 10:27:20;;;;;;;2.78;2.40;;;;;;;40.78;21.54;100998.56;4899842;28;97874;-65
2021/08/21 10:30:08;;;;;;;2.65;2.45;;;;;;;40.53;21.59;100995.91;4896690;28;98493;-65
2021/08/21 10:32:42;;;;;;;3.00;2.40;;;;;;;40.53;21.71;100990.25;4902035;28;99194;-65
2021/08/21 10:35:11;;;;;;;3.00;2.67;;;;;;;38.99;22.68;100999.19;4904244;28;98059;-68
2021/08/21 10:37:45;;;;;;;2.95;2.60;;;;;;;37.98;23.88;100988.47;4883660;28;98109;-65
2021/08/21 10:40:27;;;;;;;3.75;2.47;;;;;;;38.52;23.54;100993.41;4900944;28;97870;-65
2021/08/21 10:42:57;;;;;;;2.78;2.42;;;;;;;36.83;24.62;100993.31;4900722;28;98432;-65
2021/08/21 10:45:43;;;;;;;3.53;2.60;;;;;;;35.61;25.55;100980.88;4899413;28;98180;-65
2021/08/21 10:48:29;;;;;;;4.63;2.88;;;;;;;34.64;26.16;100973.91;4906715;28;98210;-65
2021/08/21 10:50:55;;;;;;;2.40;2.20;;;;;;;33.65;27.94;100986.97;4900590;28;98104;-64
2021/08/21 10:53:28;;;;;;;2.83;2.50;;;;;;;33.01;28.10;100977.06;4897631;28;128312;-64
2021/08/21 10:55:54;;;;;;;3.38;2.50;;;;;;;32.37;28.87;100977.34;4900732;28;97939;-64
2021/08/21 10:58:27;;;;;;;3.65;2.60;;;;;;;31.84;29.65;100976.28;4902366;28;97817;-64
2021/08/21 11:01:05;;;;;;;3.08;2.78;;;;;;;32.90;28.80;100973.53;4885285;28;99381;-64
2021/08/21 11:03:30;;;;;;;3.63;2.35;;;;;;;31.83;29.94;100982.25;4883266;28;97988;-68
2021/08/21 11:06:07;;;;;;;2.83;2.50;;;;;;;31.15;30.66;100974.66;4901007;28;98262;-68
2021/08/21 11:08:39;;;;;;;3.47;2.80;;;;;;;31.65;29.94;100974.72;4907822;28;97987;-68
2021/08/21 11:14:09;;;;;;;;;;;;;;;31.73;29.89;100967.94;4901451;28;97992;-64
2021/08/21 11:16:57;;;;;;;3.95;3.55;;;;;;;31.51;30.49;100981.06;4904460;28;98753;-68
2021/08/21 11:19:42;;;;;;;3.20;2.67;;;;;;;32.70;28.78;100973.25;4905682;28;97911;-64
2021/08/21 11:22:24;;;;;;;4.20;2.60;;;;;;;31.67;30.52;100975.09;4902019;28;98485;-64
2021/08/21 11:24:53;;;;;;;3.00;2.80;;;;;;;31.62;30.65;100971.94;4900410;28;99250;-67